Time;durP1;ratioP1;P1;durP2;ratioP2;P2;SDS_P1;SDS_P2;PMS_P1;PMS_P2;Temp;Humidity;BMP_temperature;BMP_pressure;BME280_temperature;BME280_humidity;BME280_pressure;Samples;Min_cycle;Max_cycle;Signal;HPM_P1;HPM_P2
2023/01/15 00:00:56;;;;;;;43.78;23.67;;;;;;;3.08;100.00;100886.88;5108200;28;20042;-69
2023/01/15 00:03:21;;;;;;;45.33;23.35;;;;;;;3.10;100.00;100895.63;5108700;28;20015;-69
2023/01/15 00:05:47;;;;;;;41.90;22.65;;;;;;;3.09;100.00;100893.91;5108426;28;20362;-69
2023/01/15 00:08:12;;;;;;;48.53;25.38;;;;;;;3.05;100.00;100887.88;5108279;28;20043;-69
2023/01/15 00:10:38;;;;;;;46.22;24.73;;;;;;;3.02;100.00;100897.75;5108115;28;20084;-70
2023/01/15 00:13:03;;;;;;;48.85;23.48;;;;;;;3.10;100.00;100906.22;5108708;28;20023;-69
2023/01/15 00:15:28;;;;;;;45.22;22.77;;;;;;;3.01;100.00;100896.03;5109087;28;20043;-68
2023/01/15 00:17:54;;;;;;;41.85;23.67;;;;;;;2.97;100.00;100892.66;5108070;28;20019;-68
2023/01/15 00:20:20;;;;;;;50.30;23.67;;;;;;;3.01;100.00;100898.69;5109017;28;20488;-69
2023/01/15 00:22:46;;;;;;;43.50;23.30;;;;;;;3.02;100.00;100895.09;5110314;28;20036;-69
2023/01/15 00:27:55;;;;;;;41.30;22.70;;;;;;;3.03;100.00;100887.09;5113246;27;20097;-69
2023/01/15 00:30:22;;;;;;;38.35;21.67;;;;;;;2.96;100.00;100863.63;5112096;28;20059;-69
2023/01/15 00:32:48;;;;;;;39.10;21.80;;;;;;;2.93;100.00;100869.91;5112009;27;20107;-69
2023/01/15 00:35:16;;;;;;;35.47;20.67;;;;;;;3.00;100.00;100889.03;5111923;28;20560;-69
2023/01/15 00:37:42;;;;;;;35.17;21.00;;;;;;;2.92;100.00;100878.81;5112911;27;20034;-69
2023/01/15 00:40:08;;;;;;;35.65;20.77;;;;;;;2.96;100.00;100884.81;5111751;27;20023;-69
2023/01/15 00:42:33;;;;;;;35.20;21.40;;;;;;;2.88;100.00;100871.94;5111634;28;20038;-68
2023/01/15 00:45:05;;;;;;;38.90;20.95;;;;;;;2.95;100.00;100875.13;5113992;27;20035;-69
2023/01/15 00:47:31;;;;;;;38.72;20.85;;;;;;;2.94;100.00;100876.09;5111703;27;20034;-69
2023/01/15 00:49:57;;;;;;;38.20;21.08;;;;;;;2.96;100.00;100883.00;5111506;27;20039;-69
2023/01/15 00:52:22;;;;;;;45.80;21.63;;;;;;;2.95;100.00;100880.44;5113202;27;20472;-67
2023/01/15 00:54:47;;;;;;;40.05;21.83;;;;;;;2.98;100.00;100873.22;5112557;27;20465;-68
2023/01/15 00:57:13;;;;;;;35.78;21.00;;;;;;;2.97;100.00;100866.19;5111700;27;20456;-68
2023/01/15 00:59:38;;;;;;;38.90;22.88;;;;;;;3.03;100.00;100873.84;5111781;27;20352;-68
2023/01/15 01:02:04;;;;;;;38.47;20.40;;;;;;;3.06;100.00;100868.38;5111041;27;20160;-68
2023/01/15 01:04:29;;;;;;;38.08;20.92;;;;;;;3.01;100.00;100853.66;5112770;27;20023;-69
2023/01/15 01:06:54;;;;;;;38.17;19.63;;;;;;;3.02;100.00;100850.94;5111157;28;20035;-69
2023/01/15 01:09:20;;;;;;;35.78;19.17;;;;;;;3.03;100.00;100849.16;5111183;28;20031;-70
2023/01/15 01:11:48;;;;;;;38.10;20.33;;;;;;;2.99;100.00;100840.47;5110812;28;20024;-67
2023/01/15 01:14:13;;;;;;;33.63;18.52;;;;;;;3.07;100.00;100848.94;5111280;28;20111;-67
2023/01/15 01:16:40;;;;;;;33.60;18.27;;;;;;;3.08;100.00;100831.22;5110772;28;20553;-68
2023/01/15 01:19:12;;;;;;;32.05;18.55;;;;;;;3.14;100.00;100833.56;5109403;28;20031;-69
2023/01/15 01:21:39;;;;;;;29.70;16.85;;;;;;;3.13;100.00;100831.88;5110888;28;20016;-68
2023/01/15 01:24:06;;;;;;;28.83;16.35;;;;;;;3.11;100.00;100834.59;5110321;28;20132;-68
2023/01/15 01:26:32;;;;;;;30.58;17.40;;;;;;;3.10;100.00;100837.31;5111933;27;20035;-69
2023/01/15 01:28:58;;;;;;;32.10;17.25;;;;;;;3.16;100.00;100829.91;5110633;28;20024;-68
2023/01/15 01:31:24;;;;;;;37.03;16.80;;;;;;;3.06;100.00;100822.50;5110925;27;20084;-69
2023/01/15 01:33:51;;;;;;;27.67;16.60;;;;;;;3.10;100.00;100838.19;5108307;28;20099;-68
2023/01/15 01:36:18;;;;;;;28.80;16.38;;;;;;;3.13;100.00;100824.75;5109809;27;20032;-68
2023/01/15 01:38:48;;;;;;;33.20;17.88;;;;;;;3.10;100.00;100821.41;5110782;28;20427;-68
2023/01/15 01:41:14;;;;;;;29.45;17.20;;;;;;;3.13;100.00;100822.09;5111024;28;20016;-68
2023/01/15 01:44:00;;;;;;;28.83;16.90;;;;;;;3.17;100.00;100821.03;5112637;27;20030;-68
2023/01/15 01:46:28;;;;;;;28.50;16.88;;;;;;;3.08;100.00;100805.59;5110474;28;20020;-68
2023/01/15 01:49:07;;;;;;;31.13;17.88;;;;;;;3.15;100.00;100814.94;5110601;28;20130;-68
2023/01/15 01:51:42;;;;;;;29.50;17.05;;;;;;;3.21;100.00;100813.78;5109572;28;20020;-68
2023/01/15 01:54:10;;;;;;;32.55;17.27;;;;;;;3.20;100.00;100806.78;5111458;27;20039;-68
2023/01/15 01:56:35;;;;;;;29.63;16.90;;;;;;;3.20;100.00;100806.78;5110284;28;20039;-68
2023/01/15 01:59:02;;;;;;;26.95;16.58;;;;;;;3.23;100.00;100802.19;5112167;27;20670;-69
2023/01/15 02:01:28;;;;;;;28.58;16.00;;;;;;;3.20;100.00;100793.53;5110225;28;20027;-69
2023/01/15 02:03:53;;;;;;;30.05;17.13;;;;;;;3.18;100.00;100784.78;5110466;27;20046;-69
2023/01/15 02:06:20;;;;;;;29.50;16.92;;;;;;;3.25;100.00;100788.84;5110448;28;20376;-69
2023/01/15 02:08:45;;;;;;;29.02;17.02;;;;;;;3.24;100.00;100780.03;5110434;28;20039;-69
2023/01/15 02:11:16;;;;;;;27.38;15.70;;;;;;;3.30;100.00;100794.78;5110305;28;20036;-69
2023/01/15 02:13:49;;;;;;;28.85;16.20;;;;;;;3.28;100.00;100789.56;5112201;27;20027;-69
2023/01/15 02:16:38;;;;;;;24.13;14.32;;;;;;;3.27;100.00;100785.19;5110195;28;20046;-67
2023/01/15 02:19:27;;;;;;;27.77;16.00;;;;;;;3.39;100.00;100791.66;5108544;28;20027;-68
2023/01/15 02:22:02;;;;;;;24.05;14.52;;;;;;;3.33;100.00;100784.88;5104009;28;20050;-68
2023/01/15 02:25:04;;;;;;;26.88;16.15;;;;;;;3.36;100.00;100783.88;5108516;28;20039;-68
2023/01/15 02:27:30;;;;;;;28.10;14.73;;;;;;;3.40;100.00;100786.28;5109079;28;20027;-67
2023/01/15 02:30:06;;;;;;;27.83;15.40;;;;;;;3.38;100.00;100784.63;5107589;28;20040;-68
2023/01/15 02:33:04;;;;;;;29.80;16.38;;;;;;;3.39;100.00;100783.72;5108993;27;20361;-69
2023/01/15 02:35:37;;;;;;;31.45;14.82;;;;;;;3.37;100.00;100772.31;5102196;28;20716;-69
2023/01/15 02:38:07;;;;;;;27.33;15.70;;;;;;;3.35;100.00;100769.75;5106892;28;20027;-69
2023/01/15 02:40:33;;;;;;;28.35;15.55;;;;;;;3.37;100.00;100775.84;5108890;28;20131;-69
2023/01/15 02:42:59;;;;;;;29.50;16.00;;;;;;;3.42;100.00;100776.44;5108422;28;20023;-69
2023/01/15 02:45:31;;;;;;;27.52;15.25;;;;;;;3.47;100.00;100778.84;5107847;28;20083;-69
2023/01/15 02:48:04;;;;;;;30.35;17.45;;;;;;;3.42;100.00;100765.00;5107451;28;20081;-69
2023/01/15 02:50:35;;;;;;;28.77;16.50;;;;;;;3.45;100.00;100762.19;5107355;27;20096;-68
2023/01/15 02:53:06;;;;;;;30.20;16.42;;;;;;;3.54;100.00;100769.66;5105160;28;20366;-69
2023/01/15 02:55:36;;;;;;;29.38;16.88;;;;;;;3.54;100.00;100767.00;5107430;27;20520;-68
2023/01/15 02:58:07;;;;;;;27.80;16.45;;;;;;;3.60;100.00;100762.25;5108713;28;20056;-67
2023/01/15 03:00:36;;;;;;;31.33;17.13;;;;;;;3.59;100.00;100754.38;5110685;27;20035;-68
2023/01/15 03:03:10;;;;;;;26.27;15.75;;;;;;;3.52;100.00;100732.59;5108857;27;20423;-69
2023/01/15 03:05:37;;;;;;;;;;;;;;;3.59;100.00;100747.28;5109156;28;20034;-69
2023/01/15 03:08:06;;;;;;;28.42;15.70;;;;;;;3.59;100.00;100725.19;5107249;28;19912;-68
2023/01/15 03:10:41;;;;;;;29.60;16.38;;;;;;;3.59;100.00;100723.41;5107902;28;20035;-68
2023/01/15 03:13:12;;;;;;;27.58;15.80;;;;;;;3.60;100.00;100722.47;5106843;28;20031;-68
2023/01/15 03:18:49;;;;;;;26.83;15.27;;;;;;;3.60;100.00;100726.91;5106738;28;20088;-67
2023/01/15 03:21:25;;;;;;;29.95;15.70;;;;;;;3.60;100.00;100713.66;5108178;28;20027;-68
2023/01/15 03:23:53;;;;;;;27.05;15.73;;;;;;;3.67;100.00;100728.28;5109625;28;20027;-68
2023/01/15 03:26:19;;;;;;;25.38;14.68;;;;;;;3.63;100.00;100708.19;5107508;28;20028;-68
2023/01/15 03:28:46;;;;;;;27.25;15.07;;;;;;;3.68;100.00;100708.81;5108885;28;20767;-68
2023/01/15 03:31:13;;;;;;;32.20;15.10;;;;;;;3.60;100.00;100695.06;5106949;28;20038;-68
2023/01/15 03:33:39;;;;;;;25.85;14.52;;;;;;;3.61;100.00;100700.31;5108466;28;20073;-68
2023/01/15 03:36:05;;;;;;;30.75;15.75;;;;;;;3.57;100.00;100700.53;5108392;28;20113;-68
2023/01/15 03:38:37;;;;;;;26.60;14.85;;;;;;;3.61;100.00;100702.97;5107946;28;20027;-68
2023/01/15 03:41:29;;;;;;;29.35;16.27;;;;;;;3.55;100.00;100689.19;5108487;28;20118;-68
2023/01/15 03:44:04;;;;;;;30.52;15.95;;;;;;;3.60;100.00;100695.06;5107637;28;20027;-68
2023/01/15 03:46:51;;;;;;;30.33;15.88;;;;;;;3.62;100.00;100685.25;5108743;28;20032;-69
2023/01/15 03:49:20;;;;;;;30.83;15.88;;;;;;;3.56;100.00;100669.66;5110953;28;20051;-69
2023/01/15 03:51:55;;;;;;;32.85;16.27;;;;;;;3.61;100.00;100686.22;5107149;28;20120;-68
2023/01/15 03:54:42;;;;;;;32.42;16.73;;;;;;;3.59;100.00;100674.81;5108887;28;20028;-68
2023/01/15 03:57:15;;;;;;;31.17;15.80;;;;;;;3.63;100.00;100673.69;5109286;28;20035;-68
2023/01/15 04:00:06;;;;;;;30.75;16.67;;;;;;;3.66;100.00;100673.53;5113096;27;20517;-68
2023/01/15 04:02:31;;;;;;;33.13;16.73;;;;;;;3.70;100.00;100669.78;5112348;28;20024;-69
2023/01/15 04:04:57;;;;;;;32.63;17.30;;;;;;;3.74;100.00;100676.66;5112878;28;20092;-68
2023/01/15 04:07:24;;;;;;;31.95;17.27;;;;;;;3.60;100.00;100657.94;5112858;28;20023;-69
2023/01/15 04:09:50;;;;;;;34.20;18.10;;;;;;;3.75;100.00;100662.44;5113784;27;20415;-69
2023/01/15 04:12:15;;;;;;;31.38;17.60;;;;;;;3.77;100.00;100652.63;5112493;28;20031;-68
2023/01/15 04:14:41;;;;;;;38.45;17.55;;;;;;;3.75;100.00;100649.19;5112407;28;20028;-68
2023/01/15 04:17:07;;;;;;;37.40;18.55;;;;;;;3.78;100.00;100652.50;5110993;28;20027;-68
2023/01/15 04:19:32;;;;;;;34.03;16.95;;;;;;;3.77;100.00;100640.19;5112556;27;20040;-68
2023/01/15 04:21:58;;;;;;;35.78;17.33;;;;;;;3.80;100.00;100642.66;5111122;28;20026;-69
2023/01/15 04:24:24;;;;;;;39.97;19.20;;;;;;;3.83;100.00;100646.94;5112339;28;20084;-68
2023/01/15 04:26:49;;;;;;;36.03;18.08;;;;;;;3.81;100.00;100639.06;5110752;28;20065;-68
2023/01/15 04:29:15;;;;;;;38.60;18.27;;;;;;;3.88;100.00;100658.19;5112661;27;20638;-68
2023/01/15 04:31:40;;;;;;;36.28;18.02;;;;;;;3.91;100.00;100645.59;5110541;28;20031;-69
2023/01/15 04:34:05;;;;;;;40.25;19.65;;;;;;;3.91;100.00;100634.13;5112303;28;20023;-69
2023/01/15 04:36:34;;;;;;;44.28;19.45;;;;;;;3.91;100.00;100626.16;5111923;27;20023;-68
2023/01/15 04:39:00;;;;;;;47.20;21.98;;;;;;;3.94;100.00;100629.50;5112350;27;20059;-68
2023/01/15 04:44:09;;;;;;;42.55;20.70;;;;;;;4.03;100.00;100622.84;5112047;28;20027;-67
2023/01/15 04:46:41;;;;;;;45.63;22.13;;;;;;;3.95;100.00;100617.09;5109407;28;20367;-69
2023/01/15 04:49:16;;;;;;;46.15;22.88;;;;;;;3.98;100.00;100625.75;5110378;27;20044;-68
2023/01/15 04:51:42;;;;;;;54.25;23.83;;;;;;;4.09;100.00;100627.78;5111920;27;20034;-69
2023/01/15 04:54:09;;;;;;;46.78;22.02;;;;;;;4.09;100.00;100626.00;5111842;28;20023;-69
2023/01/15 04:56:41;;;;;;;45.13;22.02;;;;;;;4.13;100.00;100626.69;5111542;28;20107;-69
2023/01/15 04:59:07;;;;;;;41.97;21.73;;;;;;;4.16;100.00;100626.50;5111588;27;20628;-69
2023/01/15 05:01:33;;;;;;;49.35;22.30;;;;;;;4.13;100.00;100616.06;5111148;28;20023;-69
2023/01/15 05:03:59;;;;;;;50.47;22.58;;;;;;;4.18;100.00;100625.47;5110162;28;20024;-68
2023/01/15 05:06:25;;;;;;;51.63;23.08;;;;;;;4.20;100.00;100620.06;5111308;28;20646;-69
2023/01/15 05:08:51;;;;;;;54.30;24.60;;;;;;;4.23;100.00;100626.03;5108664;28;20024;-69
2023/01/15 05:11:16;;;;;;;49.17;22.70;;;;;;;4.21;100.00;100616.47;5112771;27;20426;-67
2023/01/15 05:13:41;;;;;;;49.65;23.55;;;;;;;4.32;100.00;100622.03;5109917;28;20043;-68
2023/01/15 05:16:13;;;;;;;48.13;22.88;;;;;;;4.37;100.00;100622.63;5111178;28;20096;-68
2023/01/15 05:18:39;;;;;;;54.50;24.95;;;;;;;4.27;100.00;100603.72;5109344;28;20026;-68
2023/01/15 05:21:05;;;;;;;52.53;22.85;;;;;;;4.34;100.00;100620.13;5111068;28;20103;-68
2023/01/15 05:23:30;;;;;;;56.67;24.58;;;;;;;4.35;100.00;100608.56;5109026;28;20415;-68
2023/01/15 05:25:56;;;;;;;51.50;23.65;;;;;;;4.34;100.00;100609.50;5111011;28;20027;-69
2023/01/15 05:28:21;;;;;;;53.60;22.83;;;;;;;4.38;100.00;100611.91;5110486;28;20039;-69
2023/01/15 05:30:46;;;;;;;54.15;24.17;;;;;;;4.39;100.00;100612.78;5109452;27;20019;-69
2023/01/15 05:33:12;;;;;;;58.83;25.60;;;;;;;4.37;100.00;100606.69;5109138;28;20130;-69
2023/01/15 05:35:38;;;;;;;55.00;25.33;;;;;;;4.42;100.00;100617.91;5110490;28;20106;-69
2023/01/15 05:38:05;;;;;;;52.50;24.60;;;;;;;4.44;100.00;100602.72;5110368;28;20023;-69
2023/01/15 05:40:31;;;;;;;52.55;22.98;;;;;;;4.43;100.00;100614.31;5110358;27;20381;-69
2023/01/15 05:42:56;;;;;;;56.13;23.50;;;;;;;4.47;100.00;100614.03;5110133;28;20084;-69
2023/01/15 05:45:22;;;;;;;56.72;26.35;;;;;;;4.40;100.00;100599.41;5109811;28;20031;-67
2023/01/15 05:47:47;;;;;;;58.17;27.02;;;;;;;4.50;100.00;100591.75;5110310;28;20087;-67
2023/01/15 05:50:13;;;;;;;60.03;26.30;;;;;;;4.54;100.00;100601.25;5109323;27;20058;-68
2023/01/15 05:52:38;;;;;;;54.72;26.10;;;;;;;4.51;100.00;100588.13;5109511;27;20340;-67
2023/01/15 05:55:04;;;;;;;61.38;26.73;;;;;;;4.47;100.00;100591.94;5105874;28;20118;-68
2023/01/15 05:57:31;;;;;;;59.70;26.15;;;;;;;4.55;100.00;100602.97;5109721;28;20035;-67
2023/01/15 05:59:57;;;;;;;63.55;26.45;;;;;;;4.55;100.00;100602.97;5110081;28;20492;-68
2023/01/15 06:02:22;;;;;;;57.25;26.75;;;;;;;4.53;100.00;100589.78;5110147;27;20040;-67
2023/01/15 06:04:48;;;;;;;56.75;26.63;;;;;;;4.56;100.00;100597.56;5109690;28;20408;-68
2023/01/15 06:07:13;;;;;;;59.97;26.17;;;;;;;4.55;100.00;100589.69;5109947;28;20050;-68
2023/01/15 06:09:38;;;;;;;63.58;27.17;;;;;;;4.57;100.00;100590.44;5109755;27;20095;-67
2023/01/15 06:12:04;;;;;;;64.05;25.65;;;;;;;4.57;100.00;100590.44;5109654;28;20077;-67
2023/01/15 06:14:29;;;;;;;67.97;28.05;;;;;;;4.50;100.00;100581.13;5109581;28;20093;-68
2023/01/15 06:16:55;;;;;;;60.95;26.05;;;;;;;4.59;100.00;100583.25;5109646;28;20031;-67
2023/01/15 06:19:20;;;;;;;59.80;27.52;;;;;;;4.59;100.00;100585.91;5108076;27;20114;-67
2023/01/15 06:21:46;;;;;;;56.03;26.27;;;;;;;4.57;100.00;100570.06;5107024;28;20023;-67
2023/01/15 06:24:11;;;;;;;54.55;25.70;;;;;;;4.62;100.00;100569.78;5109049;28;20384;-67
2023/01/15 06:26:38;;;;;;;52.40;23.70;;;;;;;4.62;100.00;100569.78;5109814;28;20030;-67
2023/01/15 06:29:04;;;;;;;48.65;23.15;;;;;;;4.61;100.00;100563.59;5108297;28;20050;-67
2023/01/15 06:31:29;;;;;;;57.88;25.75;;;;;;;4.65;100.00;100573.09;5109681;28;20024;-67
2023/01/15 06:33:55;;;;;;;48.38;24.15;;;;;;;4.67;100.00;100570.34;5109413;28;20027;-67
2023/01/15 06:36:23;;;;;;;52.58;25.17;;;;;;;4.60;100.00;100561.91;5108284;28;20042;-67
2023/01/15 06:38:49;;;;;;;55.35;26.10;;;;;;;4.65;100.00;100580.22;5106863;28;20039;-67
2023/01/15 06:49:35;;;;;;;52.35;24.60;;;;;;;4.70;100.00;100564.84;5109493;28;20063;-68
2023/01/15 06:52:01;;;;;;;49.95;23.92;;;;;;;4.66;100.00;100569.50;5105576;28;20375;-68
2023/01/15 06:54:27;;;;;;;49.45;24.58;;;;;;;4.70;100.00;100573.69;5105338;28;20155;-67
2023/01/15 06:56:53;;;;;;;58.45;25.73;;;;;;;4.73;100.00;100573.50;5108231;28;20041;-68
2023/01/15 06:59:19;;;;;;;55.38;24.98;;;;;;;4.71;100.00;100564.75;5106885;28;20043;-69
2023/01/15 07:01:44;;;;;;;51.53;24.83;;;;;;;4.75;100.00;100568.94;5107853;28;20253;-69
2023/01/15 07:04:10;;;;;;;56.78;26.98;;;;;;;4.83;100.00;100565.00;5105462;27;20051;-69
2023/01/15 07:06:35;;;;;;;64.13;27.95;;;;;;;4.81;100.00;100557.13;5107775;28;20063;-69
2023/01/15 07:09:01;;;;;;;57.58;27.70;;;;;;;4.85;100.00;100563.94;5107939;28;20054;-70
2023/01/15 07:11:26;;;;;;;59.20;28.10;;;;;;;4.82;100.00;100556.16;5107489;28;20036;-70
2023/01/15 07:14:04;;;;;;;66.20;28.85;;;;;;;4.87;100.00;100555.88;5108107;28;20089;-69
2023/01/15 07:16:34;;;;;;;67.22;29.25;;;;;;;4.83;100.00;100546.41;5102742;28;20062;-69
2023/01/15 07:18:59;;;;;;;64.28;28.63;;;;;;;4.93;100.00;100547.53;5110260;27;20027;-69
2023/01/15 07:21:25;;;;;;;59.38;28.13;;;;;;;4.89;100.00;100541.53;5101487;28;20046;-70
2023/01/15 07:23:51;;;;;;;55.13;26.17;;;;;;;4.88;100.00;100537.19;5107090;28;20030;-69
2023/01/15 07:26:16;;;;;;;49.63;24.33;;;;;;;4.84;100.00;100540.13;5104724;28;20036;-69
2023/01/15 07:28:41;;;;;;;46.10;23.63;;;;;;;4.91;100.00;100544.97;5108469;28;20019;-70
2023/01/15 07:31:07;;;;;;;42.13;21.95;;;;;;;4.87;100.00;100545.25;5106345;28;20031;-69
2023/01/15 07:33:32;;;;;;;48.78;23.45;;;;;;;4.86;100.00;100541.72;5109611;28;20494;-69
2023/01/15 07:36:01;;;;;;;52.53;23.55;;;;;;;4.92;100.00;100544.03;5111019;28;20737;-69
2023/01/15 07:38:27;;;;;;;45.22;22.40;;;;;;;4.89;100.00;100533.56;5113938;27;20455;-70
2023/01/15 07:51:55;;;;;;;48.80;23.98;;;;;;;4.93;100.00;100518.31;5110616;27;20119;-69
2023/01/15 07:54:20;;;;;;;58.03;28.23;;;;;;;4.89;100.00;100507.00;5111223;28;20028;-70
2023/01/15 07:56:46;;;;;;;52.22;26.58;;;;;;;4.97;100.00;100518.03;5110756;27;20051;-70
2023/01/15 07:59:11;;;;;;;51.08;24.75;;;;;;;4.80;100.00;100496.94;5111306;27;20054;-70
2023/01/15 08:01:37;;;;;;;48.63;24.20;;;;;;;4.95;100.00;100519.06;5108771;28;20023;-70
2023/01/15 08:04:02;;;;;;;43.58;23.58;;;;;;;4.93;100.00;100513.81;5109795;28;20620;-70
2023/01/15 08:06:28;;;;;;;43.78;23.17;;;;;;;4.84;100.00;100490.50;5109757;28;20027;-71
2023/01/15 08:08:53;;;;;;;42.25;23.48;;;;;;;4.75;100.00;100485.75;5110785;27;20115;-70
2023/01/15 08:16:46;;;;;;;46.72;23.90;;;;;;;4.84;100.00;100473.69;5106789;28;20103;-70
2023/01/15 08:19:12;;;;;;;42.35;22.95;;;;;;;4.90;100.00;100475.97;5108393;27;20500;-69
2023/01/15 08:21:37;;;;;;;41.17;22.52;;;;;;;4.96;100.00;100486.22;5108183;28;20046;-70
2023/01/15 08:24:03;;;;;;;43.78;22.10;;;;;;;4.98;100.00;100487.84;5109132;27;20088;-70
2023/01/15 08:26:28;;;;;;;40.42;20.95;;;;;;;4.96;100.00;100486.22;5108531;28;20028;-70
2023/01/15 08:28:54;;;;;;;41.45;22.65;;;;;;;4.99;100.00;100494.84;5109134;27;20043;-69
2023/01/15 08:31:19;;;;;;;45.15;22.08;;;;;;;5.01;100.00;100490.31;5107078;28;20034;-69
2023/01/15 08:33:44;;;;;;;40.25;21.02;;;;;;;5.05;100.00;100485.63;5105730;28;20036;-70
2023/01/15 08:36:10;;;;;;;41.50;20.75;;;;;;;5.11;100.00;100488.78;5108604;28;20035;-70
2023/01/15 08:38:35;;;;;;;41.28;21.05;;;;;;;5.17;100.00;100490.19;5109432;27;20031;-70
2023/01/15 08:41:02;;;;;;;40.55;20.67;;;;;;;5.14;100.00;100493.91;5106869;28;20065;-70
2023/01/15 08:43:30;;;;;;;40.67;21.40;;;;;;;5.17;100.00;100480.41;5110170;28;20637;-70
2023/01/15 08:45:57;;;;;;;49.25;23.75;;;;;;;5.19;100.00;100486.47;5110612;28;20019;-70
2023/01/15 08:48:23;;;;;;;46.17;23.13;;;;;;;5.25;100.00;100494.06;5107833;27;20027;-70
2023/01/15 08:50:49;;;;;;;48.03;23.05;;;;;;;5.29;100.00;100495.56;5110797;27;21305;-70
2023/01/15 08:53:15;;;;;;;52.17;26.02;;;;;;;5.27;100.00;100505.47;5110603;28;20024;-70
2023/01/15 08:55:40;;;;;;;48.60;23.35;;;;;;;5.25;100.00;100510.03;5109969;28;20120;-70
2023/01/15 08:58:06;;;;;;;56.85;25.30;;;;;;;5.35;100.00;100505.00;5111203;28;20036;-70
2023/01/15 09:00:31;;;;;;;54.67;25.23;;;;;;;5.30;100.00;100502.63;5110724;27;20177;-70
2023/01/15 09:02:57;;;;;;;61.03;25.25;;;;;;;5.26;100.00;100479.84;5110644;28;20024;-70
2023/01/15 09:05:22;;;;;;;53.75;26.90;;;;;;;5.35;100.00;100492.53;5109765;27;20093;-69
2023/01/15 09:07:48;;;;;;;59.38;26.80;;;;;;;5.35;100.00;100489.03;5110446;28;20088;-70
2023/01/15 09:10:13;;;;;;;63.35;26.77;;;;;;;5.39;100.00;100494.06;5110399;27;20081;-71
2023/01/15 09:12:39;;;;;;;65.55;28.25;;;;;;;5.42;100.00;100485.03;5109606;28;20520;-71
2023/01/15 09:15:04;;;;;;;67.70;29.45;;;;;;;5.40;100.00;100473.63;5108714;27;20123;-69
2023/01/15 09:17:31;;;;;;;69.53;29.25;;;;;;;5.53;100.00;100471.88;5110640;28;20098;-70
2023/01/15 09:19:56;;;;;;;69.95;31.40;;;;;;;5.49;100.00;100476.56;5108025;27;20031;-70
2023/01/15 09:22:22;;;;;;;67.10;32.20;;;;;;;5.58;100.00;100486.59;5110052;27;20023;-70
2023/01/15 09:24:47;;;;;;;72.53;32.45;;;;;;;5.57;100.00;100479.56;5109816;28;20445;-70
2023/01/15 09:27:13;;;;;;;65.13;29.77;;;;;;;5.60;100.00;100482.03;5109051;27;20106;-70
2023/01/15 09:29:38;;;;;;;66.20;30.17;;;;;;;5.62;100.00;100471.28;5108261;28;20024;-69
2023/01/15 09:32:04;;;;;;;60.25;30.48;;;;;;;5.64;100.00;100458.75;5109526;27;20035;-69
2023/01/15 09:34:30;;;;;;;72.82;32.47;;;;;;;5.69;100.00;100462.81;5109208;28;20038;-70
2023/01/15 09:36:55;;;;;;;68.30;32.78;;;;;;;5.70;100.00;100451.22;5107014;28;20070;-71
2023/01/15 09:39:21;;;;;;;72.82;32.15;;;;;;;5.83;100.00;100448.63;5107595;28;20027;-70
2023/01/15 09:42:06;;;;;;;74.00;33.53;;;;;;;5.84;100.00;100443.19;5107679;27;20036;-70
2023/01/15 09:45:10;;;;;;;66.07;32.05;;;;;;;5.89;100.00;100437.56;5107564;28;20437;-70
2023/01/15 09:47:42;;;;;;;69.55;32.45;;;;;;;5.93;100.00;100423.94;5107035;27;20036;-69
2023/01/15 09:50:45;;;;;;;67.28;31.27;;;;;;;6.05;100.00;100427.59;5107370;27;20231;-70
2023/01/15 09:53:24;;;;;;;64.65;29.92;;;;;;;6.09;100.00;100419.31;5107565;28;20671;-69
2023/01/15 09:55:51;;;;;;;62.17;31.67;;;;;;;6.12;100.00;100405.78;5108358;28;20570;-69
2023/01/15 09:58:19;;;;;;;57.90;29.60;;;;;;;6.30;100.00;100425.84;5108477;28;20040;-69
2023/01/15 10:00:48;;;;;;;58.80;28.60;;;;;;;6.36;100.00;100417.41;5107102;27;20110;-69
2023/01/15 10:03:49;;;;;;;57.60;30.05;;;;;;;6.42;100.00;100411.66;5101865;27;20097;-70
2023/01/15 10:06:23;;;;;;;54.97;28.02;;;;;;;6.35;100.00;100389.06;5101795;28;20066;-70
2023/01/15 10:08:50;;;;;;;56.38;30.13;;;;;;;6.55;100.00;100417.00;5106695;28;20065;-69
2023/01/15 10:11:16;;;;;;;55.38;30.20;;;;;;;6.58;100.00;100414.13;5107238;28;20039;-69
2023/01/15 10:13:48;;;;;;;57.13;31.33;;;;;;;6.57;100.00;100402.59;5102906;27;20038;-69
2023/01/15 10:16:23;;;;;;;51.80;29.92;;;;;;;6.66;100.00;100411.75;5107900;28;20027;-69
2023/01/15 10:18:50;;;;;;;59.22;33.72;;;;;;;6.76;100.00;100420.81;5106948;27;20059;-69
2023/01/15 10:21:28;;;;;;;57.05;31.55;;;;;;;6.77;100.00;100401.19;5108869;28;20725;-70
2023/01/15 10:24:06;;;;;;;57.42;32.03;;;;;;;6.89;100.00;100398.53;5109158;28;20490;-69
2023/01/15 10:26:41;;;;;;;60.10;31.67;;;;;;;6.88;100.00;100382.63;5110239;28;20494;-69
2023/01/15 10:29:35;;;;;;;55.17;28.98;;;;;;;6.98;100.00;100371.22;5110274;28;20525;-69
2023/01/15 10:32:06;;;;;;;50.22;27.40;;;;;;;7.08;100.00;100368.72;5108598;27;20380;-69
2023/01/15 10:34:43;;;;;;;53.47;28.65;;;;;;;7.18;100.00;100364.41;5107302;28;20023;-69
2023/01/15 10:37:20;;;;;;;47.45;26.75;;;;;;;7.25;100.00;100364.81;5103544;28;20027;-69
2023/01/15 10:40:13;;;;;;;41.35;24.30;;;;;;;7.34;100.00;100369.47;5105467;28;20019;-70
2023/01/15 10:42:48;;;;;;;47.38;26.45;;;;;;;7.39;100.00;100357.50;5108767;27;21000;-69
2023/01/15 10:45:23;;;;;;;47.65;26.80;;;;;;;7.44;100.00;100346.47;5108207;28;20126;-70
2023/01/15 10:47:55;;;;;;;37.78;22.33;;;;;;;7.45;100.00;100337.53;5109358;28;20107;-69
2023/01/15 10:50:25;;;;;;;40.25;23.80;;;;;;;7.54;100.00;100337.66;5108872;28;20856;-69
2023/01/15 10:52:56;;;;;;;41.25;23.48;;;;;;;7.57;100.00;100326.75;5109525;28;20084;-69
2023/01/15 10:55:31;;;;;;;40.00;24.27;;;;;;;7.64;100.00;100327.16;5109775;28;20034;-69
2023/01/15 10:58:33;;;;;;;43.45;24.52;;;;;;;7.60;100.00;100298.97;5108621;28;20058;-70
2023/01/15 11:01:12;;;;;;;46.47;24.75;;;;;;;7.64;100.00;100293.28;5087767;28;20480;-70
2023/01/15 11:03:41;;;;;;;45.28;25.88;;;;;;;7.71;100.00;100301.72;5107249;28;20038;-70
2023/01/15 11:06:13;;;;;;;43.50;25.70;;;;;;;7.77;100.00;100288.72;5109721;28;20027;-69
2023/01/15 11:08:42;;;;;;;44.45;26.23;;;;;;;7.88;100.00;100295.91;5109487;28;20379;-70
2023/01/15 11:11:18;;;;;;;44.30;25.08;;;;;;;7.94;100.00;100295.44;5109437;28;20047;-69
2023/01/15 11:19:38;;;;;;;46.70;27.30;;;;;;;8.01;100.00;100291.31;5109266;28;20115;-70
2023/01/15 11:22:18;;;;;;;46.30;27.20;;;;;;;8.07;100.00;100290.84;5108628;28;20604;-71
2023/01/15 11:25:00;;;;;;;44.53;25.67;;;;;;;8.06;100.00;100273.13;5107450;28;20479;-70
2023/01/15 11:27:32;;;;;;;46.70;26.85;;;;;;;8.10;100.00;100269.25;5105064;28;20031;-68
2023/01/15 11:30:00;;;;;;;45.15;25.80;;;;;;;8.12;100.00;100272.63;5108040;28;20030;-69
2023/01/15 11:32:35;;;;;;;45.13;25.60;;;;;;;8.12;100.00;100253.94;5108551;28;20498;-70
2023/01/15 11:35:16;;;;;;;48.88;28.10;;;;;;;8.17;100.00;100254.44;5107769;28;20031;-70
2023/01/15 11:37:41;;;;;;;49.25;27.83;;;;;;;8.16;100.00;100242.88;5107957;28;20371;-69
2023/01/15 11:40:15;;;;;;;41.03;25.48;;;;;;;8.21;100.00;100239.84;5108302;28;20031;-69
2023/01/15 11:51:16;;;;;;;48.72;26.35;;;;;;;8.41;99.93;100225.78;5108533;28;20042;-69
2023/01/15 11:53:48;;;;;;;44.33;25.58;;;;;;;8.42;99.96;100216.81;5108948;28;20028;-70
2023/01/15 11:56:19;;;;;;;46.35;26.35;;;;;;;8.43;99.87;100202.47;5108400;28;20039;-69
2023/01/15 11:58:48;;;;;;;42.72;25.30;;;;;;;8.54;98.92;100203.31;5108456;28;20095;-70
2023/01/15 12:01:24;;;;;;;42.50;26.35;;;;;;;8.59;98.25;100193.09;5108643;28;20071;-71
2023/01/15 12:03:53;;;;;;;43.08;25.73;;;;;;;8.66;98.38;100188.09;5108492;28;20103;-71
2023/01/15 12:06:19;;;;;;;46.30;26.90;;;;;;;8.70;98.14;100189.53;5107803;28;20474;-70